< < Back
Terminal Aerodrome Forecast


Current Version              Previous Versions:   1  2  3  4  5  6  7  8  9  

Terminal Aerodrome Forecast

901
FTUS42 KMLB 241800 AAA
TAFMCO
TAF AMD
KMCO 241823Z 2418/2518 07009KT P6SM SCT045
     FM250400 01005KT P6SM FEW250=

Latest METAR

395
SAUS70 KWBC 250200 RRF
MTRMCO
METAR KMCO 250153Z 35009KT 10SM SCT044 SCT250 20/15 A2997 RMK AO2 SLP147
T02000150 $


USA.gov is the U.S. government's official web portal to all federal, state and local government web resources and services.